Time;durP1;ratioP1;P1;durP2;ratioP2;P2;SDS_P1;SDS_P2;PMS_P1;PMS_P2;Temp;Humidity;BMP_temperature;BMP_pressure;BME280_temperature;BME280_humidity;BME280_pressure;Samples;Min_cycle;Max_cycle;Signal;HPM_P1;HPM_P2
2023/02/26 00:00:47;;;;;;;;;;;;;;;15.36;49.86;97858.91;4957962;28;19922;-76
2023/02/26 00:03:12;;;;;;;;;;;;;;;15.35;49.87;97867.78;4995640;28;19926;-77
2023/02/26 00:05:37;;;;;;;;;;;;;;;15.33;50.02;97867.13;4977985;28;19940;-77
2023/02/26 00:08:04;;;;;;;;;;;;;;;15.31;49.96;97863.88;4961980;28;19918;-77
2023/02/26 00:10:30;;;;;;;;;;;;;;;15.29;50.16;97866.66;4962319;28;19918;-77
2023/02/26 00:12:55;;;;;;;;;;;;;;;15.28;50.17;97865.00;4962076;28;20396;-77
2023/02/26 00:15:21;;;;;;;;;;;;;;;15.26;50.25;97860.91;4978055;28;20397;-76
2023/02/26 00:17:48;;;;;;;;;;;;;;;15.25;50.31;97865.34;4994958;28;19918;-76
2023/02/26 00:20:15;;;;;;;;;;;;;;;15.24;50.32;97871.56;4995220;28;20004;-77
2023/02/26 00:22:41;;;;;;;;;;;;;;;15.22;50.44;97872.75;4978232;28;19961;-77
2023/02/26 00:25:06;;;;;;;;;;;;;;;15.20;50.28;97873.72;4961598;28;20496;-76
2023/02/26 00:27:31;;;;;;;;;;;;;;;15.18;50.38;97872.25;4977776;28;19925;-76
2023/02/26 00:29:57;;;;;;;;;;;;;;;15.18;50.40;97875.72;4995464;28;20401;-76
2023/02/26 00:32:22;;;;;;;;;;;;;;;15.18;50.53;97877.50;4978162;28;19921;-76
2023/02/26 00:34:48;;;;;;;;;;;;;;;15.15;50.47;97870.78;4961310;28;19918;-76
2023/02/26 00:37:21;;;;;;;;;;;;;;;15.14;50.51;97876.22;4995077;28;19949;-76
2023/02/26 00:40:03;;;;;;;;;;;;;;;15.13;50.55;97880.66;4961280;28;20012;-76
2023/02/26 00:42:29;;;;;;;;;;;;;;;15.13;50.60;97880.66;4994868;28;19976;-75
2023/02/26 00:44:54;;;;;;;;;;;;;;;15.12;50.70;97884.25;4978137;28;19921;-76
2023/02/26 00:47:26;;;;;;;;;;;;;;;15.10;50.75;97880.16;4977004;28;19972;-75
2023/02/26 00:50:00;;;;;;;;;;;;;;;15.10;50.82;97877.53;4994809;28;19922;-76
2023/02/26 00:52:32;;;;;;;;;;;;;;;15.08;50.77;97861.91;4977167;28;19924;-76
2023/02/26 00:54:57;;;;;;;;;;;;;;;15.09;50.86;97862.75;4977198;28;20412;-76
2023/02/26 00:57:22;;;;;;;;;;;;;;;15.07;50.80;97848.94;4960670;28;19956;-76
2023/02/26 00:59:47;;;;;;;;;;;;;;;15.06;50.95;97848.13;4977087;28;19918;-75
2023/02/26 01:02:13;;;;;;;;;;;;;;;15.06;50.92;97855.22;4976369;28;19921;-76
2023/02/26 01:04:38;;;;;;;;;;;;;;;15.03;51.07;97858.97;4977152;28;19922;-77
2023/02/26 01:07:04;;;;;;;;;;;;;;;15.01;51.05;97859.16;4960862;28;19918;-76
2023/02/26 01:09:30;;;;;;;;;;;;;;;15.00;51.15;97865.38;4976660;28;19917;-76
2023/02/26 01:12:00;;;;;;;;;;;;;;;14.99;51.04;97857.66;4960833;28;19988;-78
2023/02/26 01:14:25;;;;;;;;;;;;;;;14.99;51.12;97862.91;4977233;28;20296;-77
2023/02/26 01:16:54;;;;;;;;;;;;;;;14.96;51.14;97861.47;4994512;28;19918;-77
2023/02/26 01:19:23;;;;;;;;;;;;;;;14.97;51.24;97851.75;4994149;28;19918;-77
2023/02/26 01:21:51;;;;;;;;;;;;;;;14.94;51.25;97852.94;4976659;28;19917;-77
2023/02/26 01:24:16;;;;;;;;;;;;;;;14.93;51.14;97847.84;4976771;28;19926;-77
2023/02/26 01:26:41;;;;;;;;;;;;;;;14.91;51.36;97847.16;4976728;28;19925;-77
2023/02/26 01:29:07;;;;;;;;;;;;;;;14.90;51.23;97848.97;4960323;28;19917;-77
2023/02/26 01:31:37;;;;;;;;;;;;;;;14.90;51.37;97848.16;4993502;28;20451;-77
2023/02/26 01:34:08;;;;;;;;;;;;;;;14.87;51.41;97843.25;4960424;28;20381;-77
2023/02/26 01:36:35;;;;;;;;;;;;;;;14.86;51.54;97846.84;4976563;28;19922;-77
2023/02/26 01:39:03;;;;;;;;;;;;;;;14.86;51.47;97846.84;4976266;28;19922;-77
2023/02/26 01:41:30;;;;;;;;;;;;;;;14.85;51.57;97840.78;4994036;28;20412;-77
2023/02/26 01:43:58;;;;;;;;;;;;;;;14.83;51.53;97842.75;4976288;28;19918;-77
2023/02/26 01:46:32;;;;;;;;;;;;;;;14.83;51.70;97843.56;4976368;28;20000;-77
2023/02/26 01:48:58;;;;;;;;;;;;;;;14.82;51.66;97841.94;4947644;28;19918;-76
2023/02/26 01:51:39;;;;;;;;;;;;;;;14.82;51.72;97846.38;4957007;28;19925;-76
2023/02/26 01:54:04;;;;;;;;;;;;;;;14.81;51.74;97844.72;4940528;28;19925;-76
2023/02/26 01:56:29;;;;;;;;;;;;;;;14.80;51.69;97843.06;4956894;28;19919;-76
2023/02/26 01:58:55;;;;;;;;;;;;;;;14.80;51.89;97845.69;4956864;28;20349;-76
2023/02/26 02:01:20;;;;;;;;;;;;;;;14.79;51.85;97849.31;4956720;28;20297;-76
2023/02/26 02:03:45;;;;;;;;;;;;;;;14.80;51.80;97849.16;4956733;28;19926;-77
2023/02/26 02:06:15;;;;;;;;;;;;;;;14.79;51.83;97847.50;4956871;28;19918;-77
2023/02/26 02:08:40;;;;;;;;;;;;;;;14.79;51.80;97847.50;4956882;28;19925;-77
2023/02/26 02:11:06;;;;;;;;;;;;;;;14.79;51.77;97844.06;4956883;28;19918;-77
2023/02/26 02:13:32;;;;;;;;;;;;;;;14.79;51.80;97852.75;4956870;28;20298;-76
2023/02/26 02:16:00;;;;;;;;;;;;;;;14.80;51.64;97857.03;4973940;28;20313;-75
2023/02/26 02:18:28;;;;;;;;;;;;;;;14.80;51.84;97858.84;4973743;28;19918;-77
2023/02/26 02:21:32;;;;;;;;;;;;;;;14.79;51.84;97863.28;4972911;28;19924;-77
2023/02/26 02:24:12;;;;;;;;;;;;;;;14.78;51.83;97866.88;4933661;29;19925;-77
2023/02/26 02:26:37;;;;;;;;;;;;;;;14.79;51.81;97872.97;4917533;29;19918;-77
2023/02/26 02:29:21;;;;;;;;;;;;;;;14.78;51.86;97869.50;4933471;29;20014;-77
2023/02/26 02:31:55;;;;;;;;;;;;;;;14.79;51.72;97879.03;4917807;29;20109;-77
2023/02/26 02:34:22;;;;;;;;;;;;;;;14.79;51.85;97878.22;4933265;29;19951;-76
2023/02/26 02:36:50;;;;;;;;;;;;;;;14.78;51.74;97885.25;4917582;29;19926;-77
2023/02/26 02:39:18;;;;;;;;;;;;;;;14.77;51.78;97891.53;4917426;29;19929;-77
2023/02/26 02:41:47;;;;;;;;;;;;;;;14.77;51.99;97888.91;4917684;29;20306;-77
2023/02/26 02:44:13;;;;;;;;;;;;;;;14.77;51.87;97891.53;4920282;29;19939;-77
2023/02/26 02:46:39;;;;;;;;;;;;;;;14.76;51.95;97899.56;4921502;29;19919;-77
2023/02/26 02:49:06;;;;;;;;;;;;;;;14.76;51.97;97900.38;4905335;29;19926;-77
2023/02/26 02:51:38;;;;;;;;;;;;;;;14.77;52.03;97901.19;4921197;29;20357;-77
2023/02/26 02:54:05;;;;;;;;;;;;;;;14.77;52.02;97901.19;4946827;28;19945;-78
2023/02/26 02:56:31;;;;;;;;;;;;;;;14.76;51.91;97904.81;4944178;28;19924;-77
2023/02/26 02:58:59;;;;;;;;;;;;;;;14.76;52.02;97903.00;4977450;28;20020;-78
2023/02/26 03:01:25;;;;;;;;;;;;;;;14.76;52.06;97913.50;4960196;28;19926;-75
2023/02/26 03:04:05;;;;;;;;;;;;;;;14.77;51.95;97909.06;4959609;28;19926;-75
2023/02/26 03:06:31;;;;;;;;;;;;;;;14.75;51.88;97911.06;4975979;28;20305;-76
2023/02/26 03:08:56;;;;;;;;;;;;;;;14.75;52.10;97913.69;4977037;28;19925;-75
2023/02/26 03:11:21;;;;;;;;;;;;;;;14.74;51.96;97906.81;4960021;28;19918;-76
2023/02/26 03:13:47;;;;;;;;;;;;;;;14.74;51.91;97912.06;4959877;28;19922;-77
2023/02/26 03:16:31;;;;;;;;;;;;;;;14.74;52.00;97912.06;4959592;28;20364;-76
2023/02/26 03:18:56;;;;;;;;;;;;;;;14.74;52.07;97914.69;4976949;28;20301;-76
2023/02/26 03:21:28;;;;;;;;;;;;;;;14.74;52.03;97926.00;4976889;28;19919;-76
2023/02/26 03:23:57;;;;;;;;;;;;;;;14.74;52.20;97918.13;4959695;28;19960;-76
2023/02/26 03:26:23;;;;;;;;;;;;;;;14.74;52.14;97914.69;4959919;28;19918;-75
2023/02/26 03:28:54;;;;;;;;;;;;;;;14.75;52.16;97925.00;4959292;28;19957;-76
2023/02/26 03:31:28;;;;;;;;;;;;;;;14.75;52.10;97927.63;4959490;28;20368;-75
2023/02/26 03:33:58;;;;;;;;;;;;;;;14.75;52.16;97919.75;4977223;28;19926;-75
2023/02/26 03:36:28;;;;;;;;;;;;;;;14.76;52.18;97918.78;4959522;28;20301;-75
2023/02/26 03:39:12;;;;;;;;;;;;;;;14.76;52.34;97923.22;4959465;28;19919;-75
2023/02/26 03:41:55;;;;;;;;;;;;;;;14.78;52.28;97921.25;4959044;28;20298;-75
2023/02/26 03:44:27;;;;;;;;;;;;;;;14.77;52.29;97925.69;4959295;28;19977;-75
2023/02/26 03:46:54;;;;;;;;;;;;;;;14.78;52.60;97923.88;4959206;28;19922;-75
2023/02/26 03:49:22;;;;;;;;;;;;;;;14.78;52.45;97918.59;4943334;28;19926;-75
2023/02/26 03:51:47;;;;;;;;;;;;;;;14.79;52.64;97922.88;4959137;28;20403;-75
2023/02/26 03:54:20;;;;;;;;;;;;;;;14.80;52.66;97922.72;4958624;28;19926;-75
2023/02/26 03:56:46;;;;;;;;;;;;;;;14.80;52.79;97924.50;4942935;28;19922;-75
2023/02/26 03:59:11;;;;;;;;;;;;;;;14.82;52.67;97922.56;4976196;28;19919;-75
2023/02/26 04:01:46;;;;;;;;;;;;;;;14.82;52.71;97919.94;4959059;28;19919;-76
2023/02/26 04:04:13;;;;;;;;;;;;;;;14.84;52.80;97924.03;4976098;28;20029;-76
2023/02/26 04:06:38;;;;;;;;;;;;;;;14.86;52.85;97923.84;4959140;28;20444;-75
2023/02/26 04:09:03;;;;;;;;;;;;;;;14.88;52.83;97929.78;4976106;28;19918;-75
2023/02/26 04:11:29;;;;;;;;;;;;;;;14.87;53.17;97928.13;4958661;28;19925;-77
2023/02/26 04:13:54;;;;;;;;;;;;;;;14.87;53.35;97922.88;4958628;28;19918;-76
2023/02/26 04:16:19;;;;;;;;;;;;;;;14.78;54.08;97929.13;4958692;28;19925;-75
2023/02/26 04:18:45;;;;;;;;;;;;;;;14.73;54.27;97920.91;4975640;28;19922;-75
2023/02/26 04:21:11;;;;;;;;;;;;;;;14.73;54.29;97920.91;4958841;28;20379;-78
2023/02/26 04:23:36;;;;;;;;;;;;;;;14.73;54.53;97913.84;4958526;28;19918;-76
2023/02/26 04:26:02;;;;;;;;;;;;;;;14.77;54.63;97916.97;4958900;28;19922;-76
2023/02/26 04:28:27;;;;;;;;;;;;;;;14.77;54.97;97924.84;4942426;28;19993;-76
2023/02/26 04:30:52;;;;;;;;;;;;;;;14.69;55.17;97925.69;4975813;28;19922;-78
2023/02/26 04:33:18;;;;;;;;;;;;;;;14.74;55.05;97931.25;4975757;28;19918;-77
2023/02/26 04:35:43;;;;;;;;;;;;;;;14.79;55.01;97930.78;4958328;28;19918;-77
2023/02/26 04:38:08;;;;;;;;;;;;;;;14.84;54.91;97926.66;4957961;28;19925;-77
2023/02/26 04:40:33;;;;;;;;;;;;;;;14.87;54.94;97922.88;4975597;28;20412;-77
2023/02/26 04:42:59;;;;;;;;;;;;;;;14.91;54.85;97932.09;4975349;28;19968;-77
2023/02/26 04:45:24;;;;;;;;;;;;;;;14.94;54.74;97921.25;4958288;28;19918;-77
2023/02/26 04:47:49;;;;;;;;;;;;;;;14.99;54.76;97937.34;4958147;28;19925;-77
2023/02/26 04:50:15;;;;;;;;;;;;;;;15.02;54.71;97939.63;4942051;28;19941;-77
2023/02/26 04:52:40;;;;;;;;;;;;;;;15.07;54.64;97935.69;4958095;28;19925;-77
2023/02/26 04:55:06;;;;;;;;;;;;;;;15.11;54.50;97937.00;4958093;28;19918;-77
2023/02/26 04:57:31;;;;;;;;;;;;;;;15.12;54.42;97933.41;4941771;28;19918;-77
2023/02/26 04:59:57;;;;;;;;;;;;;;;15.16;54.32;97937.31;4957823;28;19918;-77
2023/02/26 05:02:22;;;;;;;;;;;;;;;15.12;54.49;97942.09;4957488;28;20350;-77
2023/02/26 05:04:47;;;;;;;;;;;;;;;14.98;55.20;97940.13;4941507;28;19923;-77
2023/02/26 05:07:12;;;;;;;;;;;;;;;14.96;55.18;97934.19;4957161;28;20005;-78
2023/02/26 05:09:38;;;;;;;;;;;;;;;14.90;55.57;97940.13;4942178;28;19922;-77
2023/02/26 05:12:03;;;;;;;;;;;;;;;14.93;55.52;97945.88;4975297;28;20361;-78
2023/02/26 05:14:28;;;;;;;;;;;;;;;14.96;55.53;97956.06;4957807;28;19918;-78
2023/02/26 05:16:54;;;;;;;;;;;;;;;14.98;55.48;97964.59;4974420;28;19918;-77
2023/02/26 05:19:19;;;;;;;;;;;;;;;14.99;55.65;97957.53;4964661;28;20368;-79
2023/02/26 05:21:44;;;;;;;;;;;;;;;15.01;55.87;97972.16;4966243;28;20376;-77
2023/02/26 05:24:09;;;;;;;;;;;;;;;15.04;55.77;97962.28;4965841;28;20061;-77
2023/02/26 05:26:35;;;;;;;;;;;;;;;15.10;55.54;97969.53;4964411;28;19922;-77
2023/02/26 05:29:01;;;;;;;;;;;;;;;15.10;55.74;97980.03;4966434;28;20297;-79
2023/02/26 05:31:26;;;;;;;;;;;;;;;14.97;56.65;97970.81;4949217;28;19918;-78
2023/02/26 05:33:51;;;;;;;;;;;;;;;14.96;56.55;97963.09;4982005;28;19925;-78
2023/02/26 05:36:17;;;;;;;;;;;;;;;14.94;56.81;97975.59;4966191;28;19918;-77
2023/02/26 05:38:42;;;;;;;;;;;;;;;14.92;56.98;97985.47;4964357;28;19961;-79
2023/02/26 05:41:07;;;;;;;;;;;;;;;14.99;56.75;97978.53;4964863;28;19922;-78
2023/02/26 05:43:33;;;;;;;;;;;;;;;15.09;56.65;97986.28;4951409;28;20324;-78
2023/02/26 05:45:58;;;;;;;;;;;;;;;15.17;56.39;97996.81;4965272;28;20004;-79
2023/02/26 05:48:23;;;;;;;;;;;;;;;15.17;56.28;97999.44;4965641;28;20368;-78
2023/02/26 05:50:49;;;;;;;;;;;;;;;15.18;56.41;98004.53;4949137;28;19925;-79
2023/02/26 05:53:14;;;;;;;;;;;;;;;15.23;56.32;97998.78;4964278;28;19932;-80
2023/02/26 05:55:39;;;;;;;;;;;;;;;15.31;56.02;97995.34;4949578;28;19918;-81
2023/02/26 05:58:05;;;;;;;;;;;;;;;15.38;55.98;98004.19;4964415;28;20377;-78
2023/02/26 06:00:30;;;;;;;;;;;;;;;15.49;55.77;98008.28;4981758;28;19965;-77
2023/02/26 06:02:56;;;;;;;;;;;;;;;15.59;55.45;98011.53;4965794;28;19926;-78
2023/02/26 06:05:21;;;;;;;;;;;;;;;15.71;55.15;98010.22;4963986;28;20416;-80
2023/02/26 06:07:46;;;;;;;;;;;;;;;15.87;54.52;98012.00;4965814;28;20008;-78
2023/02/26 06:10:12;;;;;;;;;;;;;;;16.03;54.28;98021.69;4948164;28;19918;-78
2023/02/26 06:12:37;;;;;;;;;;;;;;;16.22;53.84;98012.56;4962159;28;20013;-79
2023/02/26 06:15:03;;;;;;;;;;;;;;;16.39;53.42;98021.22;4980312;28;20633;-79
2023/02/26 06:17:28;;;;;;;;;;;;;;;16.55;53.22;98024.78;4946307;28;19957;-77
2023/02/26 06:19:53;;;;;;;;;;;;;;;16.66;52.84;98029.66;4981974;28;19930;-76
2023/02/26 06:22:19;;;;;;;;;;;;;;;16.82;52.35;98034.84;4978847;28;19918;-78
2023/02/26 06:24:44;;;;;;;;;;;;;;;16.94;52.09;98029.19;4964172;28;19926;-80
2023/02/26 06:27:09;;;;;;;;;;;;;;;17.10;51.77;98030.91;4963723;28;19919;-79
2023/02/26 06:29:36;;;;;;;;;;;;;;;17.17;51.93;98014.19;4961743;28;19926;-80
2023/02/26 06:32:02;;;;;;;;;;;;;;;17.30;51.43;98021.50;4986141;28;20048;-78
2023/02/26 06:34:27;;;;;;;;;;;;;;;17.46;51.23;98023.19;4991512;28;20012;-80
2023/02/26 06:36:52;;;;;;;;;;;;;;;17.65;50.76;98021.03;4975200;28;20008;-80
2023/02/26 06:39:18;;;;;;;;;;;;;;;17.88;50.13;98016.53;4993152;28;19917;-78
2023/02/26 06:41:43;;;;;;;;;;;;;;;18.07;49.55;98016.97;4993914;28;19948;-81
2023/02/26 06:44:09;;;;;;;;;;;;;;;18.24;49.33;98015.78;4977422;28;19957;-79
2023/02/26 06:46:35;;;;;;;;;;;;;;;18.25;48.89;98009.50;4994016;28;20348;-77
2023/02/26 06:49:00;;;;;;;;;;;;;;;18.58;48.29;98008.25;5011220;28;20351;-79
2023/02/26 06:51:25;;;;;;;;;;;;;;;18.81;47.83;98023.97;4992703;28;19922;-77
2023/02/26 06:53:51;;;;;;;;;;;;;;;18.77;47.64;97999.75;5011210;28;19917;-79
2023/02/26 06:56:16;;;;;;;;;;;;;;;18.97;51.82;98002.59;4991711;28;19922;-81
2023/02/26 06:58:41;;;;;;;;;;;;;;;19.05;53.52;97985.78;4973843;28;19960;-78
2023/02/26 07:01:07;;;;;;;;;;;;;;;19.52;52.30;97986.97;4974514;28;20373;-83
2023/02/26 07:03:32;;;;;;;;;;;;;;;20.10;50.68;97993.06;4973891;28;19971;-85
2023/02/26 07:05:58;;;;;;;;;;;;;;;20.24;47.20;97986.78;4974413;28;19940;-85
2023/02/26 07:08:23;;;;;;;;;;;;;;;20.55;47.21;97988.16;5004312;28;19921;-76
2023/02/26 07:10:49;;;;;;;;;;;;;;;21.07;45.63;97968.06;5016818;28;20344;-76
2023/02/26 07:13:14;;;;;;;;;;;;;;;21.83;44.27;97969.44;5010765;28;19925;-75
2023/02/26 07:15:40;;;;;;;;;;;;;;;22.50;43.48;97971.91;4995511;28;19924;-73
2023/02/26 07:18:05;;;;;;;;;;;;;;;23.40;45.18;97984.19;5018034;28;20000;-78
2023/02/26 07:20:31;;;;;;;;;;;;;;;23.88;43.26;97974.75;4978787;28;19928;-80
2023/02/26 07:22:57;;;;;;;;;;;;;;;24.20;41.62;97977.28;5011038;28;19918;-82
2023/02/26 07:25:23;;;;;;;;;;;;;;;24.24;41.74;97978.44;4994895;28;20501;-76
2023/02/26 07:27:48;;;;;;;;;;;;;;;24.42;40.49;97977.59;4977426;28;19921;-80
2023/02/26 07:30:14;;;;;;;;;;;;;;;24.50;41.51;97979.16;4996913;28;19924;-84
2023/02/26 07:32:39;;;;;;;;;;;;;;;24.49;40.62;97964.97;4997214;28;19924;-84
2023/02/26 07:35:04;;;;;;;;;;;;;;;24.29;38.72;97973.25;4997116;28;19917;-76
2023/02/26 07:37:30;;;;;;;;;;;;;;;23.89;37.05;97980.91;5013549;28;20383;-77
2023/02/26 07:39:55;;;;;;;;;;;;;;;23.58;37.06;97991.41;4996563;28;19953;-74
2023/02/26 07:42:20;;;;;;;;;;;;;;;23.44;36.28;97987.25;4996754;28;19952;-75
2023/02/26 07:44:46;;;;;;;;;;;;;;;23.18;39.68;97996.25;5009474;28;19929;-77
2023/02/26 07:47:11;;;;;;;;;;;;;;;22.93;38.71;98019.13;4976759;28;20033;-83
2023/02/26 07:49:36;;;;;;;;;;;;;;;23.08;38.92;98026.03;4993835;28;19917;-83
2023/02/26 07:52:02;;;;;;;;;;;;;;;23.19;37.78;98038.63;4992976;28;19925;-84
2023/02/26 07:54:27;;;;;;;;;;;;;;;23.24;37.69;98043.31;4994084;28;20316;-81
2023/02/26 07:56:52;;;;;;;;;;;;;;;23.20;36.76;98044.78;4976897;28;20381;-80
2023/02/26 07:59:18;;;;;;;;;;;;;;;23.17;36.79;98064.66;4993929;28;19925;-79
2023/02/26 08:01:43;;;;;;;;;;;;;;;23.25;36.48;98050.28;4977186;28;20020;-82
2023/02/26 08:04:08;;;;;;;;;;;;;;;23.19;36.07;98061.78;4994817;28;20372;-81
2023/02/26 08:06:34;;;;;;;;;;;;;;;23.34;35.99;98051.66;4978201;28;19925;-81
2023/02/26 08:08:59;;;;;;;;;;;;;;;23.29;35.82;98048.81;4995244;28;19921;-84
2023/02/26 08:11:25;;;;;;;;;;;;;;;23.19;35.68;98054.63;4996470;28;19925;-83
2023/02/26 08:13:50;;;;;;;;;;;;;;;23.28;34.66;98060.50;4998805;28;19960;-81
2023/02/26 08:16:15;;;;;;;;;;;;;;;23.17;35.25;98069.19;5013429;28;20001;-80
2023/02/26 08:18:41;;;;;;;;;;;;;;;23.40;43.10;98061.41;4999912;28;19926;-76
2023/02/26 08:21:06;;;;;;;;;;;;;;;23.38;41.51;98052.84;4955885;28;19942;-75
2023/02/26 08:23:31;;;;;;;;;;;;;;;23.21;41.54;98057.88;4957416;28;20393;-79
2023/02/26 08:26:00;;;;;;;;;;;;;;;23.20;40.99;98077.56;4956976;28;20373;-70
2023/02/26 08:28:26;;;;;;;;;;;;;;;23.03;38.80;98073.75;4957026;28;19957;-73
2023/02/26 08:30:51;;;;;;;;;;;;;;;22.70;35.97;98080.03;4974438;28;20381;-75
2023/02/26 08:33:17;;;;;;;;;;;;;;;22.59;38.38;98081.50;4968682;28;19975;-75
2023/02/26 08:35:43;;;;;;;;;;;;;;;22.71;37.00;98079.03;4970883;28;19922;-71
2023/02/26 08:38:08;;;;;;;;;;;;;;;22.33;36.35;98085.06;4987153;28;20407;-73
2023/02/26 08:40:34;;;;;;;;;;;;;;;22.11;37.72;98068.53;4978071;28;20012;-71
2023/02/26 08:42:59;;;;;;;;;;;;;;;22.10;37.86;98075.69;5006822;28;20330;-76
2023/02/26 08:45:24;;;;;;;;;;;;;;;22.13;38.25;98075.25;4959618;28;19921;-77
2023/02/26 08:47:51;;;;;;;;;;;;;;;22.00;38.29;98083.28;4975685;28;19917;-80
2023/02/26 08:50:16;;;;;;;;;;;;;;;21.86;37.41;98080.63;4992590;28;19944;-77
2023/02/26 08:52:41;;;;;;;;;;;;;;;21.52;39.89;98086.94;4977087;28;20388;-79
2023/02/26 08:55:07;;;;;;;;;;;;;;;21.40;38.54;98070.78;4959261;28;19965;-80
2023/02/26 08:57:32;;;;;;;;;;;;;;;21.25;38.68;98068.34;4976185;28;19922;-76
2023/02/26 08:59:57;;;;;;;;;;;;;;;21.05;38.02;98067.47;4975586;28;20296;-79
2023/02/26 09:02:23;;;;;;;;;;;;;;;20.79;38.39;98063.72;4995348;28;19926;-81
2023/02/26 09:04:48;;;;;;;;;;;;;;;20.76;38.20;98058.81;4974853;28;19977;-73
2023/02/26 09:07:13;;;;;;;;;;;;;;;20.69;37.76;98066.75;4996856;28;19928;-72
2023/02/26 09:09:39;;;;;;;;;;;;;;;20.62;37.69;98055.28;5012920;28;19976;-71
2023/02/26 09:12:04;;;;;;;;;;;;;;;20.52;38.28;98044.22;5012076;28;20300;-73
2023/02/26 09:14:29;;;;;;;;;;;;;;;20.50;38.38;98055.03;4999179;28;20004;-75
2023/02/26 09:16:55;;;;;;;;;;;;;;;20.51;38.78;98050.53;4987659;28;19918;-74
2023/02/26 09:19:20;;;;;;;;;;;;;;;20.64;43.51;98053.28;4997003;28;19922;-77
2023/02/26 09:21:45;;;;;;;;;;;;;;;20.60;39.25;98059.94;4976010;28;20352;-83
2023/02/26 09:24:11;;;;;;;;;;;;;;;20.38;38.70;98067.19;4975638;28;20344;-83
2023/02/26 09:26:37;;;;;;;;;;;;;;;20.22;38.74;98069.13;4976268;28;20525;-89
2023/02/26 09:29:02;;;;;;;;;;;;;;;20.01;41.31;98062.09;4993399;28;19918;-77
2023/02/26 09:31:28;;;;;;;;;;;;;;;20.00;40.26;98065.78;4993140;28;19918;-77
2023/02/26 09:33:53;;;;;;;;;;;;;;;19.96;40.45;98069.00;4973042;28;20023;-75
2023/02/26 09:36:18;;;;;;;;;;;;;;;19.86;39.95;98066.66;4982437;28;19930;-76
2023/02/26 09:38:44;;;;;;;;;;;;;;;19.63;40.62;98065.06;4965755;28;19918;-84
2023/02/26 09:41:39;;;;;;;;;;;;;;;19.45;40.63;98062.03;4947379;28;19918;-82
2023/02/26 09:44:20;;;;;;;;;;;;;;;19.39;40.61;98071.59;4878168;29;19986;-83
2023/02/26 09:47:03;;;;;;;;;;;;;;;19.21;40.74;98073.84;4894147;29;19924;-83
2023/02/26 09:49:46;;;;;;;;;;;;;;;18.96;41.25;98072.38;4879993;29;19979;-83
2023/02/26 09:52:26;;;;;;;;;;;;;;;18.85;41.44;98072.88;4895534;29;19923;-83
2023/02/26 09:54:52;;;;;;;;;;;;;;;18.73;41.75;98082.25;4879772;29;20383;-83
2023/02/26 09:57:23;;;;;;;;;;;;;;;18.76;42.37;98084.53;4879345;29;19920;-84
2023/02/26 09:59:48;;;;;;;;;;;;;;;18.77;42.52;98092.28;4879393;29;20023;-82
2023/02/26 10:02:31;;;;;;;;;;;;;;;18.76;41.72;98081.88;4880049;29;19924;-85
2023/02/26 10:05:05;;;;;;;;;;;;;;;18.91;41.71;98082.72;4894651;29;20147;-83
2023/02/26 10:07:42;;;;;;;;;;;;;;;18.98;41.02;98078.28;4880550;29;19919;-84
2023/02/26 10:10:12;;;;;;;;;;;;;;;19.03;40.92;98090.16;4895032;29;20027;-84
2023/02/26 10:12:39;;;;;;;;;;;;;;;19.15;40.70;98084.19;4879782;29;20419;-91
2023/02/26 10:15:14;;;;;;;;;;;;;;;19.33;40.76;98080.28;4879526;29;19994;-81
2023/02/26 10:17:58;;;;;;;;;;;;;;;19.37;40.13;98072.75;4879905;29;20022;-85
2023/02/26 10:20:24;;;;;;;;;;;;;;;19.45;39.98;98067.34;4942149;28;19922;-84
2023/02/26 10:22:56;;;;;;;;;;;;;;;19.57;39.59;98060.53;4974300;28;19977;-84
2023/02/26 10:25:22;;;;;;;;;;;;;;;19.76;38.86;98050.28;4955681;28;20428;-83
2023/02/26 10:27:57;;;;;;;;;;;;;;;19.92;38.42;98033.31;4956177;28;19986;-86
2023/02/26 10:30:42;;;;;;;;;;;;;;;20.20;37.77;98038.56;4940549;28;19925;-86
2023/02/26 10:33:26;;;;;;;;;;;;;;;20.49;37.28;98071.94;4940382;28;19962;-83
2023/02/26 10:35:53;;;;;;;;;;;;;;;20.87;36.24;98065.38;4974037;28;19925;-83
2023/02/26 10:38:23;;;;;;;;;;;;;;;21.24;35.51;98055.25;4939675;28;20298;-83
2023/02/26 10:40:50;;;;;;;;;;;;;;;21.73;34.46;98062.03;4956849;28;19925;-85
2023/02/26 10:43:24;;;;;;;;;;;;;;;21.99;33.90;98037.25;4939895;28;19924;-79
2023/02/26 10:46:01;;;;;;;;;;;;;;;22.30;33.55;98048.28;4940178;28;19953;-85
2023/02/26 10:48:36;;;;;;;;;;;;;;;22.42;32.52;98040.47;4956300;28;19919;-84
2023/02/26 10:51:08;;;;;;;;;;;;;;;22.28;36.71;98040.47;4992172;28;20008;-90
2023/02/26 10:53:33;;;;;;;;;;;;;;;22.21;37.03;98037.00;4974593;28;20012;-73
2023/02/26 10:56:18;;;;;;;;;;;;;;;22.00;35.14;98041.56;4974803;28;19971;-73
2023/02/26 10:58:43;;;;;;;;;;;;;;;21.90;39.45;98056.28;4991893;28;19965;-74
2023/02/26 11:01:21;;;;;;;;;;;;;;;21.82;38.46;98042.22;4974644;28;19964;-74
2023/02/26 11:03:48;;;;;;;;;;;;;;;21.75;36.91;98043.25;4963818;28;19932;-72
2023/02/26 11:06:17;;;;;;;;;;;;;;;21.63;35.55;98027.94;4968557;28;20020;-74
2023/02/26 11:08:43;;;;;;;;;;;;;;;21.56;35.55;98042.25;4952993;28;19918;-72
2023/02/26 11:11:09;;;;;;;;;;;;;;;21.43;40.27;98033.22;4951233;28;19918;-77
2023/02/26 11:13:35;;;;;;;;;;;;;;;21.27;38.32;98018.50;4969074;28;20420;-72
2023/02/26 11:16:03;;;;;;;;;;;;;;;21.13;38.28;98024.81;4967628;28;19922;-77
2023/02/26 11:18:38;;;;;;;;;;;;;;;20.98;38.21;98024.19;4988125;28;19921;-73
2023/02/26 11:21:04;;;;;;;;;;;;;;;20.88;39.04;98020.09;4982609;28;19999;-76
2023/02/26 11:23:29;;;;;;;;;;;;;;;20.78;37.10;98025.78;4949245;28;20420;-77
2023/02/26 11:26:07;;;;;;;;;;;;;;;20.70;37.76;98027.78;4951457;28;19918;-78
2023/02/26 11:28:37;;;;;;;;;;;;;;;20.66;37.51;98024.72;4966915;28;19953;-78
2023/02/26 11:31:06;;;;;;;;;;;;;;;20.60;37.04;98030.78;4967475;28;20389;-77
2023/02/26 11:33:38;;;;;;;;;;;;;;;20.56;36.03;98032.22;4966768;28;19918;-79
2023/02/26 11:36:05;;;;;;;;;;;;;;;20.52;36.09;98079.50;4967388;28;20024;-78
2023/02/26 11:38:30;;;;;;;;;;;;;;;20.42;36.79;98031.34;4949682;28;20313;-76
2023/02/26 11:40:56;;;;;;;;;;;;;;;20.63;39.60;98026.94;4969815;28;19926;-78
2023/02/26 11:43:22;;;;;;;;;;;;;;;20.68;37.06;98043.88;4982786;28;20422;-82
2023/02/26 11:45:50;;;;;;;;;;;;;;;20.66;35.97;98034.50;4966311;28;19918;-79
2023/02/26 11:48:18;;;;;;;;;;;;;;;20.67;35.70;98039.63;4967366;28;20377;-76
2023/02/26 11:50:45;;;;;;;;;;;;;;;20.60;35.79;98038.72;4949643;28;19922;-76
2023/02/26 11:53:27;;;;;;;;;;;;;;;20.51;35.93;98018.72;4948505;28;19929;-75
2023/02/26 11:55:52;;;;;;;;;;;;;;;20.49;35.77;98042.75;4966796;28;19918;-76
2023/02/26 11:58:21;;;;;;;;;;;;;;;20.34;36.32;98032.31;4948415;28;20436;-77
2023/02/26 12:00:48;;;;;;;;;;;;;;;20.23;36.59;98027.56;4965695;28;19976;-77
2023/02/26 12:03:33;;;;;;;;;;;;;;;20.17;36.50;98012.47;4950678;28;19930;-76
2023/02/26 12:06:00;;;;;;;;;;;;;;;20.13;36.75;98022.66;4968841;28;19929;-79
2023/02/26 12:08:37;;;;;;;;;;;;;;;20.13;36.58;98003.25;4968360;28;19973;-76
2023/02/26 12:11:14;;;;;;;;;;;;;;;20.17;36.22;98007.97;4986380;28;20393;-76
2023/02/26 12:13:55;;;;;;;;;;;;;;;20.37;35.89;97996.66;4973623;28;19922;-75
2023/02/26 12:16:24;;;;;;;;;;;;;;;20.43;35.19;98003.81;4971545;28;20005;-74
2023/02/26 12:18:55;;;;;;;;;;;;;;;20.49;34.76;97995.03;4958104;28;19926;-78
2023/02/26 12:21:28;;;;;;;;;;;;;;;20.57;34.91;98005.50;4943650;29;20021;-76
2023/02/26 12:23:59;;;;;;;;;;;;;;;20.62;34.60;97996.94;4940521;29;19990;-79
2023/02/26 12:26:39;;;;;;;;;;;;;;;20.67;34.77;97997.19;4934677;29;19919;-79
2023/02/26 12:29:24;;;;;;;;;;;;;;;20.66;34.72;97970.88;4957808;28;19922;-76
2023/02/26 12:31:49;;;;;;;;;;;;;;;20.60;34.46;97969.78;4957718;28;19985;-80
2023/02/26 12:34:15;;;;;;;;;;;;;;;20.48;34.73;97972.22;4974133;28;19918;-74
2023/02/26 12:36:46;;;;;;;;;;;;;;;20.28;34.96;97976.63;4955643;28;20453;-75
2023/02/26 12:39:17;;;;;;;;;;;;;;;20.15;34.97;97983.50;4941809;28;19925;-79
2023/02/26 12:41:52;;;;;;;;;;;;;;;20.02;35.44;97984.28;4974227;28;19922;-78
2023/02/26 12:44:32;;;;;;;;;;;;;;;19.95;35.76;97983.41;4956465;28;19929;-76
2023/02/26 12:46:57;;;;;;;;;;;;;;;19.86;35.98;98003.94;4956240;28;19960;-75
2023/02/26 12:49:35;;;;;;;;;;;;;;;19.84;36.04;97999.84;4970259;28;19961;-76
2023/02/26 12:52:15;;;;;;;;;;;;;;;19.80;36.42;98006.56;4951480;29;19919;-75